sensor_id;sensor_type;location;lat;lon;timestamp;pressure;altitude;pressure_sealevel;temperature;humidity
10392;BME280;5242;49.244;6.774;2023-02-13T00:07:15;101523.25;;;1.09;95.05
10392;BME280;5242;49.244;6.774;2023-02-13T00:15:08;101520.97;;;1.01;95.13
10392;BME280;5242;49.244;6.774;2023-02-13T00:23:00;101522.91;;;0.89;94.54
10392;BME280;5242;49.244;6.774;2023-02-13T00:30:51;101527.63;;;0.82;94.65
10392;BME280;5242;49.244;6.774;2023-02-13T00:38:44;101529.41;;;0.64;93.83
10392;BME280;5242;49.244;6.774;2023-02-13T00:46:36;101545.91;;;0.56;94.64
10392;BME280;5242;49.244;6.774;2023-02-13T00:54:29;101536.00;;;0.45;94.05
10392;BME280;5242;49.244;6.774;2023-02-13T01:02:20;101528.00;;;0.33;95.53
10392;BME280;5242;49.244;6.774;2023-02-13T01:10:12;101526.38;;;0.20;94.43
10392;BME280;5242;49.244;6.774;2023-02-13T01:18:04;101532.19;;;0.17;95.73
10392;BME280;5242;49.244;6.774;2023-02-13T01:25:56;101536.31;;;0.08;93.96
10392;BME280;5242;49.244;6.774;2023-02-13T01:33:48;101527.56;;;0.01;95.16
10392;BME280;5242;49.244;6.774;2023-02-13T01:41:39;101523.13;;;-0.05;94.26
10392;BME280;5242;49.244;6.774;2023-02-13T01:49:31;101514.28;;;-0.17;94.66
10392;BME280;5242;49.244;6.774;2023-02-13T01:57:24;101515.47;;;-0.25;94.61
10392;BME280;5242;49.244;6.774;2023-02-13T02:05:21;101526.06;;;-0.30;96.58
10392;BME280;5242;49.244;6.774;2023-02-13T02:13:17;101517.53;;;-0.39;96.47
10392;BME280;5242;49.244;6.774;2023-02-13T02:37:47;101500.88;;;-0.53;94.75
10392;BME280;5242;49.244;6.774;2023-02-13T02:46:04;101496.78;;;-0.67;95.79
10392;BME280;5242;49.244;6.774;2023-02-13T02:54:21;101496.09;;;-0.62;97.16
10392;BME280;5242;49.244;6.774;2023-02-13T03:02:34;101498.19;;;-0.64;97.35
10392;BME280;5242;49.244;6.774;2023-02-13T03:10:45;101508.75;;;-0.70;96.52
10392;BME280;5242;49.244;6.774;2023-02-13T03:18:56;101506.91;;;-0.69;96.96
10392;BME280;5242;49.244;6.774;2023-02-13T03:43:22;101516.28;;;-0.90;96.91
10392;BME280;5242;49.244;6.774;2023-02-13T03:51:29;101523.97;;;-0.94;96.89
10392;BME280;5242;49.244;6.774;2023-02-13T03:59:29;101524.72;;;-1.05;96.56
10392;BME280;5242;49.244;6.774;2023-02-13T04:07:23;101519.03;;;-1.08;96.80
10392;BME280;5242;49.244;6.774;2023-02-13T04:15:41;101528.22;;;-1.04;97.31
10392;BME280;5242;49.244;6.774;2023-02-13T04:23:35;101527.38;;;-1.05;96.30
10392;BME280;5242;49.244;6.774;2023-02-13T04:31:27;101524.72;;;-1.05;97.07
10392;BME280;5242;49.244;6.774;2023-02-13T04:39:19;101530.31;;;-1.06;97.05
10392;BME280;5242;49.244;6.774;2023-02-13T04:47:11;101530.19;;;-1.12;96.94
10392;BME280;5242;49.244;6.774;2023-02-13T04:55:03;101526.31;;;-1.16;97.07
10392;BME280;5242;49.244;6.774;2023-02-13T05:03:10;101530.25;;;-1.18;97.80
10392;BME280;5242;49.244;6.774;2023-02-13T05:11:02;101520.81;;;-1.21;97.33
10392;BME280;5242;49.244;6.774;2023-02-13T05:18:54;101527.44;;;-1.23;97.83
10392;BME280;5242;49.244;6.774;2023-02-13T05:26:46;101513.03;;;-1.22;97.58
10392;BME280;5242;49.244;6.774;2023-02-13T05:34:37;101522.19;;;-1.30;97.35
10392;BME280;5242;49.244;6.774;2023-02-13T05:42:29;101523.81;;;-1.29;98.22
10392;BME280;5242;49.244;6.774;2023-02-13T05:50:21;101526.63;;;-1.24;98.38
10392;BME280;5242;49.244;6.774;2023-02-13T05:58:12;101527.09;;;-1.27;98.44
10392;BME280;5242;49.244;6.774;2023-02-13T06:06:04;101530.09;;;-1.35;98.39
10392;BME280;5242;49.244;6.774;2023-02-13T06:13:56;101531.56;;;-1.39;99.02
10392;BME280;5242;49.244;6.774;2023-02-13T06:21:48;101527.63;;;-1.37;98.95
10392;BME280;5242;49.244;6.774;2023-02-13T06:29:40;101547.47;;;-1.44;99.03
10392;BME280;5242;49.244;6.774;2023-02-13T06:37:32;101545.69;;;-1.50;98.91
10392;BME280;5242;49.244;6.774;2023-02-13T06:45:23;101547.47;;;-1.44;98.93
10392;BME280;5242;49.244;6.774;2023-02-13T06:53:15;101555.16;;;-1.36;99.74
10392;BME280;5242;49.244;6.774;2023-02-13T07:01:07;101545.66;;;-1.32;99.58
10392;BME280;5242;49.244;6.774;2023-02-13T07:09:00;101554.28;;;-1.30;99.90
10392;BME280;5242;49.244;6.774;2023-02-13T07:16:52;101556.78;;;-1.17;100.00
10392;BME280;5242;49.244;6.774;2023-02-13T07:24:44;101557.31;;;-0.54;100.00
10392;BME280;5242;49.244;6.774;2023-02-13T07:32:35;101562.69;;;0.40;100.00
10392;BME280;5242;49.244;6.774;2023-02-13T07:40:27;101566.28;;;0.98;96.51
10392;BME280;5242;49.244;6.774;2023-02-13T07:48:23;101575.84;;;1.22;93.78
10392;BME280;5242;49.244;6.774;2023-02-13T07:56:15;101576.00;;;1.16;92.57
10392;BME280;5242;49.244;6.774;2023-02-13T08:04:07;101575.09;;;1.72;95.12
10392;BME280;5242;49.244;6.774;2023-02-13T08:11:58;101580.06;;;2.36;92.74
10392;BME280;5242;49.244;6.774;2023-02-13T08:19:50;101573.53;;;3.85;94.65
10392;BME280;5242;49.244;6.774;2023-02-13T08:27:42;101565.06;;;6.71;89.49
10392;BME280;5242;49.244;6.774;2023-02-13T08:35:34;101554.75;;;9.58;78.89
10392;BME280;5242;49.244;6.774;2023-02-13T08:43:25;101546.34;;;11.57;77.45
10392;BME280;5242;49.244;6.774;2023-02-13T08:51:17;101551.25;;;13.23;71.21
10392;BME280;5242;49.244;6.774;2023-02-13T08:59:09;101538.25;;;14.40;52.87
10392;BME280;5242;49.244;6.774;2023-02-13T09:07:01;101540.13;;;13.72;62.35
10392;BME280;5242;49.244;6.774;2023-02-13T09:14:52;101538.59;;;13.27;58.33
10392;BME280;5242;49.244;6.774;2023-02-13T09:22:44;101529.06;;;13.33;56.96
10392;BME280;5242;49.244;6.774;2023-02-13T09:30:36;101529.50;;;13.61;57.26
10392;BME280;5242;49.244;6.774;2023-02-13T09:38:28;101530.03;;;14.40;51.91
10392;BME280;5242;49.244;6.774;2023-02-13T09:46:22;101529.84;;;14.45;51.12
10392;BME280;5242;49.244;6.774;2023-02-13T09:54:16;101539.19;;;14.44;53.17
10392;BME280;5242;49.244;6.774;2023-02-13T10:10:33;101527.81;;;16.05;44.42
10392;BME280;5242;49.244;6.774;2023-02-13T10:26:35;101541.38;;;16.59;42.82
10392;BME280;5242;49.244;6.774;2023-02-13T10:34:41;101526.34;;;16.57;44.39
10392;BME280;5242;49.244;6.774;2023-02-13T10:42:45;101533.34;;;16.29;45.58
10392;BME280;5242;49.244;6.774;2023-02-13T10:50:55;101535.38;;;15.50;45.49
10392;BME280;5242;49.244;6.774;2023-02-13T11:07:02;101523.47;;;13.85;49.02
10392;BME280;5242;49.244;6.774;2023-02-13T11:14:54;101504.22;;;12.51;51.64
10392;BME280;5242;49.244;6.774;2023-02-13T11:22:47;101513.78;;;12.23;52.45
10392;BME280;5242;49.244;6.774;2023-02-13T11:30:39;101508.13;;;12.19;52.65
10392;BME280;5242;49.244;6.774;2023-02-13T11:38:31;101510.63;;;11.67;53.32
10392;BME280;5242;49.244;6.774;2023-02-13T11:46:25;101504.66;;;12.27;53.31
10392;BME280;5242;49.244;6.774;2023-02-13T11:54:26;101495.91;;;13.43;50.60
10392;BME280;5242;49.244;6.774;2023-02-13T12:02:28;101495.25;;;14.62;48.44
10392;BME280;5242;49.244;6.774;2023-02-13T12:26:38;101479.41;;;18.10;42.57
10392;BME280;5242;49.244;6.774;2023-02-13T12:34:58;101470.06;;;15.68;44.51
10392;BME280;5242;49.244;6.774;2023-02-13T12:43:13;101457.66;;;14.11;48.87
10392;BME280;5242;49.244;6.774;2023-02-13T12:51:32;101448.03;;;14.56;46.79
10392;BME280;5242;49.244;6.774;2023-02-13T13:16:21;101430.06;;;13.22;49.76
10392;BME280;5242;49.244;6.774;2023-02-13T13:24:24;101422.22;;;12.77;51.05
10392;BME280;5242;49.244;6.774;2023-02-13T13:32:20;101417.88;;;12.94;51.11
10392;BME280;5242;49.244;6.774;2023-02-13T13:40:28;101416.91;;;12.72;50.87
10392;BME280;5242;49.244;6.774;2023-02-13T13:48:39;101408.00;;;12.06;52.25
10392;BME280;5242;49.244;6.774;2023-02-13T14:05:00;101398.91;;;11.39;54.14
10392;BME280;5242;49.244;6.774;2023-02-13T14:36:45;101397.84;;;10.73;55.19
10392;BME280;5242;49.244;6.774;2023-02-13T14:44:44;101401.53;;;10.54;56.51
10392;BME280;5242;49.244;6.774;2023-02-13T14:52:38;101396.31;;;10.44;56.86
10392;BME280;5242;49.244;6.774;2023-02-13T15:08:31;101395.75;;;10.33;58.33
10392;BME280;5242;49.244;6.774;2023-02-13T15:16:25;101382.00;;;10.24;57.67
10392;BME280;5242;49.244;6.774;2023-02-13T15:24:19;101385.22;;;10.27;57.62
10392;BME280;5242;49.244;6.774;2023-02-13T15:32:17;101380.63;;;10.13;58.68
10392;BME280;5242;49.244;6.774;2023-02-13T15:48:16;101367.97;;;9.95;58.56
10392;BME280;5242;49.244;6.774;2023-02-13T15:56:12;101374.50;;;9.80;59.01
10392;BME280;5242;49.244;6.774;2023-02-13T16:04:06;101369.38;;;9.78;59.17
10392;BME280;5242;49.244;6.774;2023-02-13T16:12:06;101370.78;;;9.62;59.66
10392;BME280;5242;49.244;6.774;2023-02-13T16:20:17;101362.09;;;9.32;60.67
10392;BME280;5242;49.244;6.774;2023-02-13T16:28:15;101369.19;;;9.01;64.98
10392;BME280;5242;49.244;6.774;2023-02-13T16:44:01;101373.94;;;8.00;65.29
10392;BME280;5242;49.244;6.774;2023-02-13T16:51:57;101374.91;;;7.61;66.11
10392;BME280;5242;49.244;6.774;2023-02-13T17:07:49;101389.25;;;6.74;69.68
10392;BME280;5242;49.244;6.774;2023-02-13T17:15:46;101404.72;;;6.29;69.43
10392;BME280;5242;49.244;6.774;2023-02-13T17:23:40;101406.47;;;6.00;69.44
10392;BME280;5242;49.244;6.774;2023-02-13T17:31:31;101401.69;;;5.66;70.50
10392;BME280;5242;49.244;6.774;2023-02-13T17:39:23;101424.19;;;5.36;72.24
10392;BME280;5242;49.244;6.774;2023-02-13T17:47:15;101420.69;;;4.99;74.50
10392;BME280;5242;49.244;6.774;2023-02-13T17:55:28;101418.53;;;4.71;74.59
10392;BME280;5242;49.244;6.774;2023-02-13T18:03:22;101417.94;;;4.53;73.57
10392;BME280;5242;49.244;6.774;2023-02-13T18:11:14;101422.50;;;4.32;73.62
10392;BME280;5242;49.244;6.774;2023-02-13T18:19:05;101423.47;;;4.06;74.93
10392;BME280;5242;49.244;6.774;2023-02-13T18:26:57;101428.78;;;3.90;74.56
10392;BME280;5242;49.244;6.774;2023-02-13T18:34:49;101434.91;;;3.76;75.37
10392;BME280;5242;49.244;6.774;2023-02-13T18:42:41;101441.88;;;3.66;76.51
10392;BME280;5242;49.244;6.774;2023-02-13T18:50:33;101437.44;;;3.50;75.39
10392;BME280;5242;49.244;6.774;2023-02-13T18:58:25;101441.63;;;3.31;76.72
10392;BME280;5242;49.244;6.774;2023-02-13T19:06:19;101447.41;;;3.12;77.59
10392;BME280;5242;49.244;6.774;2023-02-13T19:14:12;101462.31;;;2.93;77.04
10392;BME280;5242;49.244;6.774;2023-02-13T19:22:04;101465.94;;;2.76;78.58
10392;BME280;5242;49.244;6.774;2023-02-13T19:29:56;101457.19;;;2.64;78.09
10392;BME280;5242;49.244;6.774;2023-02-13T19:37:48;101459.97;;;2.47;78.42
10392;BME280;5242;49.244;6.774;2023-02-13T19:45:39;101460.91;;;2.36;80.40
10392;BME280;5242;49.244;6.774;2023-02-13T19:53:31;101456.75;;;2.23;79.18
10392;BME280;5242;49.244;6.774;2023-02-13T20:01:24;101465.66;;;2.07;79.31
10392;BME280;5242;49.244;6.774;2023-02-13T20:09:16;101468.22;;;1.96;79.32
10392;BME280;5242;49.244;6.774;2023-02-13T20:17:08;101481.44;;;1.81;79.75
10392;BME280;5242;49.244;6.774;2023-02-13T20:25:01;101486.03;;;1.64;79.28
10392;BME280;5242;49.244;6.774;2023-02-13T20:32:53;101480.75;;;1.52;79.97
10392;BME280;5242;49.244;6.774;2023-02-13T20:40:44;101481.47;;;1.47;81.95
10392;BME280;5242;49.244;6.774;2023-02-13T20:48:39;101477.03;;;1.36;80.35
10392;BME280;5242;49.244;6.774;2023-02-13T20:56:32;101481.34;;;1.20;79.65
10392;BME280;5242;49.244;6.774;2023-02-13T21:04:23;101488.16;;;1.11;81.06
10392;BME280;5242;49.244;6.774;2023-02-13T21:12:15;101476.25;;;0.90;81.60
10392;BME280;5242;49.244;6.774;2023-02-13T21:20:07;101471.28;;;0.82;82.14
10392;BME280;5242;49.244;6.774;2023-02-13T21:27:59;101471.47;;;0.63;81.89
10392;BME280;5242;49.244;6.774;2023-02-13T21:35:58;101467.69;;;0.48;80.54
10392;BME280;5242;49.244;6.774;2023-02-13T21:43:50;101472.13;;;0.42;81.60
10392;BME280;5242;49.244;6.774;2023-02-13T21:51:42;101465.59;;;0.38;82.20
10392;BME280;5242;49.244;6.774;2023-02-13T21:59:34;101458.41;;;0.38;81.98
10392;BME280;5242;49.244;6.774;2023-02-13T22:07:25;101455.25;;;0.30;82.48
10392;BME280;5242;49.244;6.774;2023-02-13T22:15:18;101463.19;;;0.25;82.10
10392;BME280;5242;49.244;6.774;2023-02-13T22:23:09;101456.69;;;0.20;81.36
10392;BME280;5242;49.244;6.774;2023-02-13T22:31:07;101454.97;;;0.14;82.04
10392;BME280;5242;49.244;6.774;2023-02-13T22:38:59;101448.09;;;0.07;82.20
10392;BME280;5242;49.244;6.774;2023-02-13T22:46:51;101453.03;;;-0.02;82.49
10392;BME280;5242;49.244;6.774;2023-02-13T22:54:43;101450.56;;;-0.15;82.86
10392;BME280;5242;49.244;6.774;2023-02-13T23:02:34;101455.47;;;-0.24;82.64
10392;BME280;5242;49.244;6.774;2023-02-13T23:10:26;101441.13;;;-0.18;83.02
10392;BME280;5242;49.244;6.774;2023-02-13T23:18:18;101443.47;;;-0.22;83.21
10392;BME280;5242;49.244;6.774;2023-02-13T23:26:10;101449.78;;;-0.28;82.69
10392;BME280;5242;49.244;6.774;2023-02-13T23:34:02;101452.69;;;-0.41;81.88
10392;BME280;5242;49.244;6.774;2023-02-13T23:41:54;101451.53;;;-0.57;81.39
10392;BME280;5242;49.244;6.774;2023-02-13T23:49:46;101447.91;;;-0.62;82.31
10392;BME280;5242;49.244;6.774;2023-02-13T23:57:37;101451.84;;;-0.77;82.86
